createdAt,value
2019-02-16T00:00:16.514Z,19.27
2019-02-16T00:02:50.215Z,19.60
2019-02-16T00:05:23.796Z,19.57
2019-02-16T00:07:57.442Z,19.03
2019-02-16T00:10:31.096Z,19.00
2019-02-16T00:13:04.845Z,19.70
2019-02-16T00:15:38.553Z,20.80
2019-02-16T00:18:12.127Z,18.67
2019-02-16T00:20:45.783Z,19.10
2019-02-16T00:23:19.504Z,19.93
2019-02-16T00:25:53.175Z,18.57
2019-02-16T00:28:26.846Z,20.03
2019-02-16T00:31:00.490Z,19.03
2019-02-16T00:33:34.156Z,19.53
2019-02-16T00:36:07.803Z,20.13
2019-02-16T00:38:41.520Z,19.90
2019-02-16T00:41:15.140Z,18.63
2019-02-16T00:43:48.820Z,17.27
2019-02-16T00:46:22.454Z,18.13
2019-02-16T00:48:56.088Z,18.47
2019-02-16T00:51:29.788Z,18.83
2019-02-16T00:54:03.673Z,19.00
2019-02-16T00:56:37.482Z,18.73
2019-02-16T00:59:11.137Z,19.80
2019-02-16T01:01:44.725Z,19.33
2019-02-16T01:04:18.388Z,18.57
2019-02-16T01:06:52.007Z,18.90
2019-02-16T01:09:25.622Z,18.57
2019-02-16T01:11:59.294Z,16.90
2019-02-16T01:14:33.020Z,17.47
2019-02-16T01:17:09.569Z,18.97
2019-02-16T01:19:43.236Z,18.60
2019-02-16T01:22:16.948Z,18.13
2019-02-16T01:24:50.572Z,18.57
2019-02-16T01:27:24.555Z,18.13
2019-02-16T01:29:58.226Z,17.17
2019-02-16T01:32:31.807Z,17.67
2019-02-16T01:35:07.077Z,18.40
2019-02-16T01:37:40.804Z,17.13
2019-02-16T01:40:14.504Z,17.60
2019-02-16T01:42:48.212Z,17.40
2019-02-16T01:45:22.240Z,17.13
2019-02-16T01:47:55.828Z,16.37
2019-02-16T01:50:29.576Z,18.40
2019-02-16T01:53:03.198Z,17.97
2019-02-16T01:55:36.838Z,18.17
2019-02-16T01:58:10.471Z,16.73
2019-02-16T02:00:44.100Z,17.97
2019-02-16T02:03:18.140Z,17.43
2019-02-16T02:05:51.859Z,17.70
2019-02-16T02:08:25.534Z,18.23
2019-02-16T02:10:59.394Z,17.70
2019-02-16T02:13:32.968Z,17.73
2019-02-16T02:16:06.602Z,16.60
2019-02-16T02:18:40.268Z,17.27
2019-02-16T02:21:14.542Z,17.57
2019-02-16T02:23:48.212Z,17.93
2019-02-16T02:26:21.870Z,16.30
2019-02-16T02:28:55.478Z,16.63
2019-02-16T02:31:29.114Z,17.57
2019-02-16T02:34:02.921Z,17.77
2019-02-16T02:36:36.584Z,16.60
2019-02-16T02:39:10.190Z,17.23
2019-02-16T02:41:43.808Z,17.23
2019-02-16T02:44:17.462Z,16.80
2019-02-16T02:46:51.155Z,18.03
2019-02-16T02:49:24.888Z,17.20
2019-02-16T02:51:58.534Z,17.97
2019-02-16T02:54:32.228Z,18.00
2019-02-16T02:57:06.260Z,17.33
2019-02-16T02:59:40.059Z,16.77
2019-02-16T03:02:13.720Z,18.27
2019-02-16T03:04:47.319Z,16.73
2019-02-16T03:07:21.116Z,17.33
2019-02-16T03:09:54.723Z,16.30
2019-02-16T03:12:28.354Z,18.07
2019-02-16T03:15:01.972Z,16.40
2019-02-16T03:17:35.676Z,16.73
2019-02-16T03:20:09.433Z,16.53
2019-02-16T03:23:08.854Z,16.77
2019-02-16T03:25:45.900Z,16.43
2019-02-16T03:28:34.856Z,16.83
2019-02-16T03:31:29.700Z,16.40
2019-02-16T03:34:06.436Z,15.40
2019-02-16T03:36:43.106Z,15.73
2019-02-16T03:39:16.953Z,15.63
2019-02-16T03:41:50.538Z,16.77
2019-02-16T03:44:24.278Z,15.33
2019-02-16T03:46:57.952Z,15.30
2019-02-16T03:49:31.625Z,15.30
2019-02-16T03:52:13.353Z,16.40
2019-02-16T03:54:40.627Z,15.17
2019-02-16T03:57:14.287Z,15.20
2019-02-16T03:59:50.473Z,15.37
2019-02-16T04:02:24.093Z,14.93
2019-02-16T04:04:57.755Z,13.90
2019-02-16T04:07:31.573Z,14.37
2019-02-16T04:10:06.346Z,13.87
2019-02-16T04:12:39.990Z,14.43
2019-02-16T04:15:13.650Z,13.97
2019-02-16T04:17:47.381Z,14.27
2019-02-16T04:20:21.026Z,14.20
2019-02-16T04:22:54.659Z,13.70
2019-02-16T04:25:28.262Z,14.07
2019-02-16T04:28:01.904Z,13.63
2019-02-16T04:30:35.529Z,13.97
2019-02-16T04:33:09.166Z,13.70
2019-02-16T04:35:42.746Z,13.67
2019-02-16T04:38:16.401Z,12.83
2019-02-16T04:40:50.122Z,12.77
2019-02-16T04:43:23.737Z,11.53
2019-02-16T04:45:59.666Z,10.97
2019-02-16T04:48:33.398Z,11.80
2019-02-16T04:51:06.995Z,11.03
2019-02-16T04:53:40.758Z,11.00
2019-02-16T04:56:14.431Z,11.33
2019-02-16T04:58:48.116Z,10.33
2019-02-16T05:01:21.786Z,12.10
2019-02-16T05:03:55.525Z,10.63
2019-02-16T05:06:29.079Z,10.03
2019-02-16T05:09:04.043Z,9.87
2019-02-16T05:11:37.672Z,9.03
2019-02-16T05:14:11.326Z,9.10
2019-02-16T05:16:44.937Z,9.73
2019-02-16T05:19:18.802Z,8.70
2019-02-16T05:21:52.387Z,9.13
2019-02-16T05:24:26.010Z,9.07
2019-02-16T05:26:59.751Z,8.53
2019-02-16T05:29:34.015Z,8.13
2019-02-16T05:32:07.732Z,9.50
2019-02-16T05:34:41.338Z,8.43
2019-02-16T05:37:14.980Z,8.93
2019-02-16T05:39:48.597Z,8.17
2019-02-16T05:42:22.349Z,8.50
2019-02-16T05:44:55.960Z,8.77
2019-02-16T05:47:29.620Z,8.47
2019-02-16T05:50:03.356Z,9.07
2019-02-16T05:52:37.110Z,8.90
2019-02-16T05:55:10.801Z,9.27
2019-02-16T05:57:44.521Z,9.17
2019-02-16T06:00:19.759Z,8.97
2019-02-16T06:02:53.496Z,8.93
2019-02-16T06:05:27.187Z,8.30
2019-02-16T06:08:00.837Z,9.03
2019-02-16T06:10:34.445Z,10.87
2019-02-16T06:13:08.145Z,11.87
2019-02-16T06:15:41.763Z,11.27
2019-02-16T06:18:15.483Z,11.30
2019-02-16T06:20:49.243Z,10.63
2019-02-16T06:23:22.991Z,10.33
2019-02-16T06:25:56.585Z,9.73
2019-02-16T06:28:30.269Z,10.33
2019-02-16T06:31:03.979Z,10.80
2019-02-16T06:33:37.653Z,10.53
2019-02-16T06:36:12.969Z,11.33
2019-02-16T06:38:47.109Z,10.87
2019-02-16T06:41:20.686Z,9.40
2019-02-16T06:43:54.391Z,10.00
2019-02-16T06:46:28.069Z,9.03
2019-02-16T06:49:01.697Z,9.40
2019-02-16T06:51:35.373Z,8.67
2019-02-16T06:54:09.145Z,8.17
2019-02-16T06:56:44.357Z,8.37
2019-02-16T06:59:18.171Z,9.27
2019-02-16T07:01:51.851Z,9.67
2019-02-16T07:04:25.673Z,8.63
2019-02-16T07:06:59.287Z,9.50
2019-02-16T07:09:33.036Z,8.97
2019-02-16T07:12:06.692Z,9.60
2019-02-16T07:14:40.464Z,9.53
2019-02-16T07:17:18.781Z,9.60
2019-02-16T07:19:53.146Z,9.60
2019-02-16T07:22:26.927Z,11.37
2019-02-16T07:25:00.559Z,10.97
2019-02-16T07:27:34.300Z,10.97
2019-02-16T07:30:10.910Z,10.90
2019-02-16T07:32:44.590Z,11.20
2019-02-16T07:35:18.177Z,11.03
2019-02-16T07:37:51.816Z,10.83
2019-02-16T07:40:25.400Z,10.23
2019-02-16T07:42:59.042Z,10.83
2019-02-16T07:45:43.473Z,10.30
2019-02-16T07:48:27.606Z,11.20
2019-02-16T07:51:02.935Z,10.80
2019-02-16T07:53:38.169Z,10.47
2019-02-16T07:56:13.473Z,10.63
2019-02-16T07:58:48.723Z,11.07
2019-02-16T08:01:24.139Z,11.07
2019-02-16T08:04:02.306Z,9.60
2019-02-16T08:06:46.626Z,10.93
2019-02-16T08:09:21.899Z,10.03
2019-02-16T08:12:09.499Z,10.00
2019-02-16T08:14:50.351Z,9.93
2019-02-16T08:17:28.508Z,8.30
2019-02-16T08:20:06.508Z,9.63
2019-02-16T08:22:50.720Z,9.77
2019-02-16T08:25:42.425Z,9.17
2019-02-16T08:28:17.619Z,9.03
2019-02-16T08:31:10.787Z,8.60
2019-02-16T08:34:04.313Z,8.40
2019-02-16T08:36:45.641Z,8.33
2019-02-16T08:39:21.073Z,8.23
2019-02-16T08:41:56.898Z,8.23
2019-02-16T08:44:32.432Z,8.10
2019-02-16T08:47:22.962Z,8.10
2019-02-16T08:49:58.261Z,8.67
2019-02-16T08:52:48.618Z,10.63
2019-02-16T08:55:27.877Z,9.23
2019-02-16T08:58:05.611Z,9.80
2019-02-16T09:00:44.196Z,8.70
2019-02-16T09:03:35.933Z,9.77
2019-02-16T09:06:14.103Z,9.97
2019-02-16T09:08:51.940Z,10.60
2019-02-16T09:11:35.968Z,10.57
2019-02-16T09:14:11.282Z,10.23
2019-02-16T09:17:02.097Z,9.90
2019-02-16T09:19:52.523Z,9.50
2019-02-16T09:22:34.116Z,9.37
2019-02-16T09:25:09.820Z,9.90
2019-02-16T09:28:02.230Z,9.83
2019-02-16T09:30:40.512Z,9.93
2019-02-16T09:33:18.852Z,9.83
2019-02-16T09:35:56.941Z,10.27
2019-02-16T09:38:47.492Z,10.03
2019-02-16T09:41:34.639Z,10.23
2019-02-16T09:44:22.045Z,9.80
2019-02-16T09:47:03.640Z,9.20
2019-02-16T09:49:51.178Z,10.47
2019-02-16T09:52:41.675Z,10.40
2019-02-16T09:55:17.104Z,9.87
2019-02-16T09:58:08.820Z,9.67
2019-02-16T10:00:53.012Z,9.23
2019-02-16T10:03:30.916Z,9.37
2019-02-16T10:06:06.342Z,9.87
2019-02-16T10:08:44.625Z,8.73
2019-02-16T10:11:36.338Z,7.77
2019-02-16T10:14:11.644Z,7.70
2019-02-16T10:16:46.976Z,7.57
2019-02-16T10:19:25.037Z,7.70
2019-02-16T10:22:00.350Z,7.27
2019-02-16T10:24:51.732Z,6.63
2019-02-16T10:27:43.398Z,6.43
2019-02-16T10:30:34.998Z,7.30
2019-02-16T10:33:19.329Z,7.43
2019-02-16T10:36:10.823Z,8.40
2019-02-16T10:38:58.172Z,7.40
2019-02-16T10:41:39.500Z,7.33
2019-02-16T10:44:23.721Z,6.90
2019-02-16T10:47:01.563Z,7.27
2019-02-16T10:49:49.073Z,7.13
2019-02-16T10:52:27.387Z,6.40
2019-02-16T10:55:08.668Z,6.07
2019-02-16T10:57:50.060Z,7.53
2019-02-16T11:00:28.168Z,6.57
2019-02-16T11:03:15.316Z,6.43
2019-02-16T11:05:54.511Z,6.67
2019-02-16T11:08:35.773Z,6.43
2019-02-16T11:11:17.794Z,6.50
2019-02-16T11:14:09.452Z,7.07
2019-02-16T11:16:50.698Z,6.63
2019-02-16T11:19:26.425Z,6.90
2019-02-16T11:22:04.954Z,6.47
2019-02-16T11:24:49.417Z,6.13
2019-02-16T11:27:27.616Z,7.10
2019-02-16T11:30:18.099Z,6.90
2019-02-16T11:32:56.323Z,6.37
2019-02-16T11:35:40.498Z,7.47
2019-02-16T11:38:33.823Z,7.03
2019-02-16T11:41:18.277Z,7.60
2019-02-16T11:43:46.278Z,7.57
2019-02-16T11:46:24.225Z,8.00
2019-02-16T11:49:08.214Z,8.43
2019-02-16T11:52:00.014Z,7.50
2019-02-16T11:54:35.350Z,8.17
2019-02-16T11:57:19.765Z,7.67
2019-02-16T12:00:11.506Z,7.40
2019-02-16T12:03:04.738Z,8.20
2019-02-16T12:05:40.080Z,7.20
2019-02-16T12:08:15.973Z,7.60
2019-02-16T12:10:57.104Z,7.23
2019-02-16T12:13:50.392Z,7.47
2019-02-16T12:16:25.656Z,6.83
2019-02-16T12:19:06.751Z,7.53
2019-02-16T12:21:48.306Z,8.00
2019-02-16T12:24:23.605Z,8.10
2019-02-16T12:26:58.870Z,7.77
2019-02-16T12:29:50.654Z,7.93
2019-02-16T12:32:28.853Z,7.80
2019-02-16T12:35:06.722Z,6.90
2019-02-16T12:37:47.696Z,7.17
2019-02-16T12:40:28.595Z,6.47
2019-02-16T12:43:07.039Z,6.17
2019-02-16T12:45:50.828Z,6.37
2019-02-16T12:48:19.519Z,6.70
2019-02-16T12:51:07.150Z,6.37
2019-02-16T12:53:45.357Z,6.40
2019-02-16T12:56:26.805Z,6.40
2019-02-16T12:59:10.947Z,6.63
2019-02-16T13:01:46.198Z,6.30
2019-02-16T13:04:33.671Z,6.13
2019-02-16T13:07:24.107Z,6.10
2019-02-16T13:09:59.496Z,5.83
2019-02-16T13:12:38.736Z,5.90
2019-02-16T13:15:23.110Z,5.70
2019-02-16T13:18:15.247Z,5.40
2019-02-16T13:20:53.487Z,5.10
2019-02-16T13:23:47.158Z,5.33
2019-02-16T13:26:28.420Z,5.50
2019-02-16T13:29:19.937Z,5.40
2019-02-16T13:31:58.598Z,6.10
2019-02-16T13:34:36.497Z,6.17
2019-02-16T13:37:11.835Z,6.00
2019-02-16T13:40:03.245Z,6.27
2019-02-16T13:42:39.131Z,6.47
2019-02-16T13:45:20.355Z,6.07
2019-02-16T13:47:58.558Z,6.67
2019-02-16T13:50:50.447Z,6.20
2019-02-16T13:53:29.813Z,6.37
2019-02-16T13:56:23.317Z,6.17
2019-02-16T13:59:10.515Z,6.30
2019-02-16T14:01:48.623Z,6.40
2019-02-16T14:04:38.856Z,7.30
2019-02-16T14:07:14.793Z,7.17
2019-02-16T14:10:00.492Z,6.50
2019-02-16T14:12:38.359Z,7.37
2019-02-16T14:15:14.207Z,7.37
2019-02-16T14:17:47.947Z,7.30
2019-02-16T14:20:21.625Z,7.00
2019-02-16T14:22:55.262Z,7.23
2019-02-16T14:25:43.749Z,7.77
2019-02-16T14:28:14.542Z,7.90
2019-02-16T14:30:48.266Z,7.47
2019-02-16T14:33:22.057Z,8.10
2019-02-16T14:35:55.782Z,7.67
2019-02-16T14:38:31.123Z,8.20
2019-02-16T14:41:04.905Z,8.03
2019-02-16T14:43:38.647Z,8.57
2019-02-16T14:46:12.284Z,7.97
2019-02-16T14:48:46.027Z,8.43
2019-02-16T14:51:19.709Z,7.40
2019-02-16T14:53:53.510Z,8.33
2019-02-16T14:56:27.280Z,8.00
2019-02-16T14:59:01.045Z,7.67
2019-02-16T15:01:34.741Z,8.10
2019-02-16T15:04:08.387Z,8.00
2019-02-16T15:06:42.100Z,8.80
2019-02-16T15:09:15.785Z,8.57
2019-02-16T15:11:49.527Z,10.30
2019-02-16T15:14:23.223Z,10.07
2019-02-16T15:16:56.915Z,12.00
2019-02-16T15:19:32.554Z,10.70
2019-02-16T15:22:05.993Z,10.10
2019-02-16T15:24:39.688Z,9.77
2019-02-16T15:27:13.379Z,9.80
2019-02-16T15:29:46.955Z,10.17
2019-02-16T15:32:20.656Z,8.87
2019-02-16T15:34:54.254Z,9.23
2019-02-16T15:37:27.953Z,9.50
2019-02-16T15:40:01.578Z,9.73
2019-02-16T15:42:35.262Z,8.83
2019-02-16T15:45:11.613Z,8.70
2019-02-16T15:47:45.247Z,9.53
2019-02-16T15:50:18.839Z,9.97
2019-02-16T15:52:52.595Z,10.43
2019-02-16T15:55:26.281Z,9.83
2019-02-16T15:57:59.957Z,9.07
2019-02-16T16:00:33.694Z,10.80
2019-02-16T16:03:07.523Z,10.87
2019-02-16T16:05:41.097Z,11.70
2019-02-16T16:08:19.428Z,12.20
2019-02-16T16:10:57.746Z,12.10
2019-02-16T16:13:38.962Z,12.87
2019-02-16T16:16:17.109Z,12.37
2019-02-16T16:18:53.273Z,13.60
2019-02-16T16:21:40.799Z,13.03
2019-02-16T16:24:32.658Z,12.90
2019-02-16T16:27:13.603Z,13.07
2019-02-16T16:29:51.495Z,13.20
2019-02-16T16:32:41.931Z,13.20
2019-02-16T16:35:17.265Z,12.43
2019-02-16T16:38:01.595Z,12.27
2019-02-16T16:40:37.157Z,12.87
2019-02-16T16:43:15.404Z,13.67
2019-02-16T16:45:50.717Z,12.50
2019-02-16T16:48:25.967Z,13.97
2019-02-16T16:51:09.907Z,14.77
2019-02-16T16:53:45.299Z,14.30
2019-02-16T16:56:28.441Z,13.90
2019-02-16T16:59:03.461Z,13.57
2019-02-16T17:01:41.873Z,14.17
2019-02-16T17:04:22.916Z,14.30
2019-02-16T17:07:03.874Z,13.97
2019-02-16T17:09:45.465Z,16.10
2019-02-16T17:12:20.784Z,17.40
2019-02-16T17:15:05.781Z,17.47
2019-02-16T17:17:46.784Z,15.63
2019-02-16T17:20:24.966Z,16.50
2019-02-16T17:23:00.243Z,18.17
2019-02-16T17:25:41.460Z,18.67
2019-02-16T17:28:16.792Z,23.17
2019-02-16T17:30:54.932Z,19.90
2019-02-16T17:33:38.827Z,19.63
2019-02-16T17:36:16.679Z,17.43
2019-02-16T17:38:55.371Z,18.63
2019-02-16T17:41:30.675Z,19.43
2019-02-16T17:44:09.132Z,18.27
2019-02-16T17:46:44.395Z,19.40
2019-02-16T17:49:22.700Z,18.13
2019-02-16T17:51:57.999Z,19.80
2019-02-16T17:54:33.219Z,17.57
2019-02-16T17:57:20.290Z,16.23
2019-02-16T17:59:55.700Z,16.20
2019-02-16T18:02:42.445Z,15.00
2019-02-16T18:05:33.995Z,14.43
2019-02-16T18:08:09.302Z,14.53
2019-02-16T18:10:44.668Z,13.97
2019-02-16T18:16:23.933Z,13.47
2019-02-16T18:19:05.512Z,13.73
2019-02-16T18:21:43.907Z,12.63
2019-02-16T18:24:28.137Z,12.63
2019-02-16T18:27:03.396Z,12.97
2019-02-16T18:29:39.333Z,13.17
2019-02-16T18:32:31.563Z,11.43
2019-02-16T18:35:08.180Z,11.17
2019-02-16T18:37:44.944Z,11.60
2019-02-16T18:40:32.164Z,11.37
2019-02-16T18:43:09.929Z,10.50
2019-02-16T18:45:47.593Z,10.43
2019-02-16T18:48:41.043Z,10.70
2019-02-16T18:51:16.282Z,11.03
2019-02-16T18:53:57.339Z,11.63
2019-02-16T18:56:38.389Z,11.27
2019-02-16T18:59:16.483Z,11.10
2019-02-16T19:01:55.126Z,10.20
2019-02-16T19:04:46.648Z,10.30
2019-02-16T19:07:37.258Z,10.20
2019-02-16T19:10:12.660Z,10.67
2019-02-16T19:13:00.072Z,11.70
2019-02-16T19:15:35.373Z,11.40
2019-02-16T19:18:18.155Z,12.07
2019-02-16T19:21:05.251Z,11.13
2019-02-16T19:23:49.432Z,11.63
2019-02-16T19:26:33.922Z,12.80
2019-02-16T19:29:09.264Z,11.73
2019-02-16T19:31:44.570Z,11.43
2019-02-16T19:34:26.048Z,11.57
2019-02-16T19:37:01.380Z,11.60
2019-02-16T19:39:39.539Z,12.80
2019-02-16T19:42:14.891Z,11.63
2019-02-16T19:44:55.953Z,13.03
2019-02-16T19:47:31.209Z,12.67
2019-02-16T19:50:08.760Z,12.43
2019-02-16T19:53:00.859Z,13.43
2019-02-16T19:55:38.909Z,12.70
2019-02-16T19:58:16.862Z,13.40
2019-02-16T20:00:57.948Z,12.60
2019-02-16T20:03:39.220Z,12.60
2019-02-16T20:06:23.442Z,11.73
2019-02-16T20:09:07.549Z,11.77
2019-02-16T20:11:59.289Z,12.83
2019-02-16T20:14:46.338Z,11.77
2019-02-16T20:17:21.653Z,12.33
2019-02-16T20:19:59.649Z,11.17
2019-02-16T20:22:40.858Z,11.97
2019-02-16T20:25:16.056Z,11.90
2019-02-16T20:28:03.786Z,11.23
2019-02-16T20:30:41.920Z,10.90
2019-02-16T20:33:17.171Z,11.20
2019-02-16T20:36:10.668Z,10.90
2019-02-16T20:38:48.884Z,10.57
2019-02-16T20:41:39.255Z,11.37
2019-02-16T20:44:20.453Z,11.33
2019-02-16T20:46:59.019Z,11.70
2019-02-16T20:49:37.090Z,9.93
2019-02-16T20:52:27.455Z,9.77
2019-02-16T20:55:08.563Z,10.33
2019-02-16T20:57:49.529Z,10.03
2019-02-16T21:00:24.791Z,11.43
2019-02-16T21:03:00.076Z,10.87
2019-02-16T21:05:50.321Z,10.03
2019-02-16T21:08:25.622Z,10.87
2019-02-16T21:11:01.055Z,10.03
2019-02-16T21:13:37.932Z,9.87
2019-02-16T21:16:13.272Z,10.57
2019-02-16T21:18:57.401Z,10.40
2019-02-16T21:21:44.824Z,10.50
2019-02-16T21:24:21.334Z,9.57
2019-02-16T21:27:02.572Z,9.40
2019-02-16T21:29:37.875Z,10.27
2019-02-16T21:32:14.788Z,10.27
2019-02-16T21:34:59.376Z,9.23
2019-02-16T21:37:37.282Z,9.97
2019-02-16T21:40:12.550Z,10.67
2019-02-16T21:42:54.020Z,10.63
2019-02-16T21:45:46.855Z,9.77
2019-02-16T21:48:21.561Z,10.30
2019-02-16T21:50:59.733Z,9.20
2019-02-16T21:53:35.468Z,10.60
2019-02-16T21:56:13.660Z,9.30
2019-02-16T21:58:51.740Z,10.53
2019-02-16T22:01:37.929Z,9.70
2019-02-16T22:04:16.212Z,9.10
2019-02-16T22:06:51.689Z,10.10
2019-02-16T22:09:45.154Z,10.23
2019-02-16T22:12:20.195Z,8.97
2019-02-16T22:14:53.821Z,10.40
2019-02-16T22:17:27.404Z,10.17
2019-02-16T22:20:01.025Z,9.87
2019-02-16T22:22:34.728Z,9.50
2019-02-16T22:25:08.582Z,9.63
2019-02-16T22:27:42.200Z,9.63
2019-02-16T22:30:15.984Z,10.80
2019-02-16T22:32:49.597Z,9.67
2019-02-16T22:35:23.288Z,10.80
2019-02-16T22:37:57.016Z,9.77
2019-02-16T22:40:30.813Z,10.57
2019-02-16T22:43:04.426Z,10.13
2019-02-16T22:45:38.033Z,10.33
2019-02-16T22:48:11.745Z,10.20
2019-02-16T22:50:45.476Z,10.03
2019-02-16T22:53:19.148Z,10.80
2019-02-16T22:55:52.816Z,11.10
2019-02-16T22:58:28.766Z,11.20
2019-02-16T23:01:01.974Z,11.17
2019-02-16T23:03:35.652Z,11.23
2019-02-16T23:06:09.291Z,11.20
2019-02-16T23:08:42.932Z,11.40
2019-02-16T23:11:16.810Z,12.27
2019-02-16T23:13:50.469Z,11.67
2019-02-16T23:16:24.174Z,13.30
2019-02-16T23:18:57.871Z,13.20
2019-02-16T23:21:31.551Z,14.37
2019-02-16T23:24:05.266Z,14.47
2019-02-16T23:26:38.924Z,13.97
2019-02-16T23:29:12.545Z,13.83
2019-02-16T23:31:46.266Z,13.63
2019-02-16T23:34:19.919Z,14.13
2019-02-16T23:36:53.616Z,14.30
2019-02-16T23:39:27.198Z,13.90
2019-02-16T23:42:00.920Z,15.20
2019-02-16T23:44:34.586Z,15.40
2019-02-16T23:47:08.291Z,15.03
2019-02-16T23:49:41.890Z,15.93
2019-02-16T23:52:15.486Z,16.43
2019-02-16T23:54:49.085Z,16.70
2019-02-16T23:57:22.892Z,17.57
2019-02-16T23:59:56.471Z,16.10
